Time;durP1;ratioP1;P1;durP2;ratioP2;P2;SDS_P1;SDS_P2;PMS_P1;PMS_P2;Temp;Humidity;BMP_temperature;BMP_pressure;BME280_temperature;BME280_humidity;BME280_pressure;Samples;Min_cycle;Max_cycle;Signal;HPM_P1;HPM_P2
2022/07/27 00:00:23;;;;;;;1.38;0.32;;;23.00;57.20;;;;;;5072850;28;20036;-60
2022/07/27 00:02:52;;;;;;;2.38;0.50;;;23.00;57.90;;;;;;5073163;28;20094;-60
2022/07/27 00:05:19;;;;;;;1.75;0.30;;;23.00;57.30;;;;;;5073513;28;20037;-59
2022/07/27 00:07:45;;;;;;;2.00;0.45;;;23.00;57.40;;;;;;5072432;28;20044;-60
2022/07/27 00:10:11;;;;;;;0.73;0.30;;;23.00;57.40;;;;;;5073103;28;20128;-60
2022/07/27 00:12:36;;;;;;;1.80;0.60;;;23.00;57.40;;;;;;5071653;28;20120;-60
2022/07/27 00:15:02;;;;;;;2.55;0.55;;;23.00;57.50;;;;;;5071992;28;20163;-60
2022/07/27 00:17:28;;;;;;;1.90;0.32;;;23.00;57.50;;;;;;5088974;28;20103;-60
2022/07/27 00:19:54;;;;;;;1.42;0.45;;;23.00;57.50;;;;;;5072766;28;20444;-60
2022/07/27 00:22:19;;;;;;;1.35;0.40;;;23.00;57.60;;;;;;5072187;28;20109;-60
2022/07/27 00:24:45;;;;;;;1.92;0.30;;;22.90;57.60;;;;;;5072913;28;20036;-60
2022/07/27 00:27:10;;;;;;;1.90;0.50;;;22.90;57.60;;;;;;5072513;28;20080;-60
2022/07/27 00:29:36;;;;;;;1.58;0.47;;;23.00;57.80;;;;;;5072400;28;20044;-60
2022/07/27 00:32:01;;;;;;;1.83;0.40;;;22.90;57.80;;;;;;5071266;28;20052;-60
2022/07/27 00:34:27;;;;;;;1.00;0.30;;;22.90;57.70;;;;;;5072854;28;20048;-59
2022/07/27 00:36:52;;;;;;;0.80;0.47;;;22.90;57.80;;;;;;5071958;28;20051;-59
2022/07/27 00:39:18;;;;;;;1.25;0.40;;;22.90;57.90;;;;;;5073029;28;20052;-60
2022/07/27 00:41:44;;;;;;;1.60;0.50;;;22.90;57.90;;;;;;5072621;28;20049;-60
2022/07/27 00:44:11;;;;;;;1.48;0.50;;;22.90;57.90;;;;;;5071941;28;20440;-59
2022/07/27 00:46:36;;;;;;;2.33;0.40;;;22.90;57.90;;;;;;5072829;28;20098;-60
2022/07/27 00:49:02;;;;;;;2.17;0.40;;;22.90;58.00;;;;;;5072456;28;20040;-60
2022/07/27 00:51:27;;;;;;;1.33;0.32;;;22.90;58.00;;;;;;5072118;28;20044;-60
2022/07/27 00:53:53;;;;;;;1.85;0.40;;;22.90;58.10;;;;;;5072171;28;20063;-60
2022/07/27 00:56:19;;;;;;;2.22;0.60;;;22.90;58.10;;;;;;5071602;28;20055;-60
2022/07/27 00:58:47;;;;;;;1.45;0.30;;;22.90;58.10;;;;;;5071730;28;20036;-60
2022/07/27 01:01:13;;;;;;;1.05;0.40;;;22.80;58.00;;;;;;5072769;28;20059;-60
2022/07/27 01:03:39;;;;;;;1.65;0.30;;;22.90;58.20;;;;;;5072066;28;20040;-60
2022/07/27 01:06:04;;;;;;;1.02;0.40;;;22.90;58.20;;;;;;5072261;28;20442;-59
2022/07/27 01:08:30;;;;;;;1.00;0.40;;;22.80;58.10;;;;;;5072597;28;20430;-60
2022/07/27 01:10:56;;;;;;;0.88;0.40;;;22.80;58.20;;;;;;5070150;28;20542;-60
2022/07/27 01:13:23;;;;;;;1.50;0.40;;;22.80;58.20;;;;;;5072399;28;20399;-60
2022/07/27 01:15:49;;;;;;;1.58;0.40;;;22.80;58.20;;;;;;5071203;28;20040;-60
2022/07/27 01:18:44;;;;;;;1.35;0.30;;;22.80;58.30;;;;;;5071576;28;20400;-59
2022/07/27 01:21:10;;;;;;;1.25;0.40;;;22.80;58.30;;;;;;5072509;28;20105;-60
2022/07/27 01:23:36;;;;;;;1.52;0.40;;;22.80;58.40;;;;;;5072441;28;20383;-60
2022/07/27 01:26:01;;;;;;;3.22;0.40;;;22.80;58.40;;;;;;5070885;28;20062;-60
2022/07/27 01:28:27;;;;;;;1.38;0.40;;;22.80;58.50;;;;;;5072098;28;20044;-59
2022/07/27 01:30:53;;;;;;;0.70;0.30;;;22.80;58.50;;;;;;5071915;28;20036;-59
2022/07/27 01:33:24;;;;;;;6.10;0.60;;;22.80;58.50;;;;;;5071377;28;20049;-60
2022/07/27 01:35:51;;;;;;;0.98;0.25;;;22.80;58.60;;;;;;5071867;28;20492;-60
2022/07/27 01:38:16;;;;;;;1.58;0.30;;;22.80;58.60;;;;;;5072045;28;20044;-60
2022/07/27 01:40:42;;;;;;;1.90;0.40;;;22.80;58.60;;;;;;5074526;28;20048;-60
2022/07/27 01:43:07;;;;;;;2.10;0.70;;;22.80;58.60;;;;;;5074620;28;20047;-60
2022/07/27 01:45:33;;;;;;;0.40;0.20;;;22.80;58.70;;;;;;5075560;28;20040;-59
2022/07/27 01:47:59;;;;;;;2.08;0.40;;;22.80;58.70;;;;;;5075191;28;20119;-60
2022/07/27 01:50:24;;;;;;;0.77;0.32;;;22.80;58.80;;;;;;5076028;28;20041;-60
2022/07/27 01:52:50;;;;;;;1.02;0.40;;;22.70;58.70;;;;;;5074852;28;20170;-60
2022/07/27 01:55:15;;;;;;;3.38;0.60;;;22.70;58.70;;;;;;5075723;28;20048;-60
2022/07/27 01:57:41;;;;;;;1.30;0.32;;;22.80;58.80;;;;;;5075596;28;20119;-60
2022/07/27 02:00:10;;;;;;;1.33;0.50;;;22.70;58.70;;;;;;5074625;28;20045;-59
2022/07/27 02:02:35;;;;;;;0.85;0.30;;;22.70;58.80;;;;;;5075658;28;20048;-60
2022/07/27 02:05:01;;;;;;;0.82;0.32;;;22.70;58.80;;;;;;5075328;28;20124;-60
2022/07/27 02:07:26;;;;;;;1.13;0.30;;;22.70;58.80;;;;;;5073642;28;20079;-60
2022/07/27 02:09:52;;;;;;;2.25;0.30;;;22.70;58.80;;;;;;5075224;28;20044;-60
2022/07/27 02:12:35;;;;;;;1.27;0.40;;;22.70;58.80;;;;;;5075544;28;20507;-60
2022/07/27 02:15:14;;;;;;;0.60;0.30;;;22.70;58.90;;;;;;5074261;28;20396;-60
2022/07/27 02:17:40;;;;;;;1.80;0.40;;;22.70;59.60;;;;;;5075404;28;20129;-60
2022/07/27 02:20:07;;;;;;;1.35;0.38;;;22.70;58.90;;;;;;5090763;28;20507;-59
2022/07/27 02:22:32;;;;;;;2.38;0.50;;;22.70;58.90;;;;;;5074452;28;20345;-60
2022/07/27 02:24:58;;;;;;;3.45;0.47;;;22.70;59.00;;;;;;5074959;28;20051;-59
2022/07/27 02:27:24;;;;;;;1.08;0.38;;;22.70;59.00;;;;;;5074803;28;20135;-59
2022/07/27 02:29:49;;;;;;;0.65;0.30;;;22.70;59.00;;;;;;5073083;28;20033;-59
2022/07/27 02:32:15;;;;;;;2.45;0.40;;;22.70;59.00;;;;;;5074895;28;20049;-59
2022/07/27 02:34:41;;;;;;;2.92;0.50;;;22.70;59.10;;;;;;5074993;28;20048;-59
2022/07/27 02:37:07;;;;;;;2.00;0.30;;;22.70;59.10;;;;;;5072900;28;20040;-59
2022/07/27 02:39:32;;;;;;;1.75;0.40;;;22.70;59.00;;;;;;5075101;28;20055;-60
2022/07/27 02:41:58;;;;;;;2.08;0.43;;;22.70;59.80;;;;;;5072634;28;20044;-60
2022/07/27 02:44:23;;;;;;;1.27;0.30;;;22.70;59.10;;;;;;5074765;28;20047;-60
2022/07/27 02:46:49;;;;;;;0.70;0.30;;;22.70;59.10;;;;;;5074401;28;20047;-60
2022/07/27 02:49:15;;;;;;;0.95;0.40;;;22.60;59.00;;;;;;5074239;28;20044;-59
2022/07/27 02:51:40;;;;;;;1.00;0.30;;;22.70;59.10;;;;;;5073604;28;20095;-60
2022/07/27 02:54:06;;;;;;;0.93;0.38;;;22.70;59.10;;;;;;5074432;28;20041;-60
2022/07/27 02:56:31;;;;;;;1.08;0.20;;;22.60;59.00;;;;;;5073799;28;20094;-60
2022/07/27 02:58:57;;;;;;;0.93;0.20;;;22.60;59.10;;;;;;5074487;28;20080;-60
2022/07/27 03:01:22;;;;;;;1.45;0.40;;;22.60;59.10;;;;;;5074846;28;20040;-59
2022/07/27 03:03:48;;;;;;;1.38;0.35;;;22.60;59.10;;;;;;5073299;28;20044;-59
2022/07/27 03:06:13;;;;;;;1.02;0.30;;;22.60;59.10;;;;;;5073212;28;20040;-60
2022/07/27 03:08:39;;;;;;;1.67;0.60;;;22.60;59.20;;;;;;5074352;28;20484;-59
2022/07/27 03:11:05;;;;;;;0.68;0.22;;;22.60;59.20;;;;;;5072375;28;20044;-59
2022/07/27 03:13:30;;;;;;;1.10;0.40;;;22.60;59.30;;;;;;5072931;28;20040;-60
2022/07/27 03:15:56;;;;;;;0.80;0.30;;;22.60;59.30;;;;;;5074274;28;20484;-60
2022/07/27 03:18:21;;;;;;;1.33;0.30;;;22.60;60.00;;;;;;5073671;28;20715;-60
2022/07/27 03:20:47;;;;;;;2.15;0.40;;;22.60;59.40;;;;;;5074131;28;20036;-60
2022/07/27 03:23:12;;;;;;;0.93;0.35;;;22.60;59.40;;;;;;5072858;28;20380;-60
2022/07/27 03:25:38;;;;;;;0.98;0.40;;;22.60;59.50;;;;;;5073250;28;20140;-59
2022/07/27 03:28:04;;;;;;;0.80;0.25;;;22.60;59.50;;;;;;5072271;28;20156;-59
2022/07/27 03:30:30;;;;;;;1.02;0.30;;;22.60;59.50;;;;;;5074331;28;20094;-59
2022/07/27 03:32:55;;;;;;;0.95;0.40;;;22.50;59.50;;;;;;5073107;28;20040;-59
2022/07/27 03:35:21;;;;;;;1.00;0.30;;;22.60;59.60;;;;;;5074101;28;20048;-59
2022/07/27 03:37:46;;;;;;;0.88;0.40;;;22.60;59.50;;;;;;5073508;28;20082;-59
2022/07/27 03:40:12;;;;;;;1.00;0.30;;;22.50;59.50;;;;;;5073079;28;20072;-59
2022/07/27 03:42:38;;;;;;;1.33;0.40;;;22.50;59.60;;;;;;5073494;28;20105;-59
2022/07/27 03:45:04;;;;;;;0.77;0.40;;;22.50;59.60;;;;;;5073350;28;20480;-59
2022/07/27 03:47:29;;;;;;;1.80;0.30;;;22.50;59.60;;;;;;5071823;28;20051;-60
2022/07/27 03:49:55;;;;;;;0.55;0.30;;;22.50;59.60;;;;;;5073491;28;20044;-59
2022/07/27 03:52:20;;;;;;;1.13;0.30;;;22.50;59.70;;;;;;5071560;28;20040;-60
2022/07/27 03:54:46;;;;;;;0.55;0.30;;;22.50;59.70;;;;;;5073146;28;20044;-60
2022/07/27 03:57:12;;;;;;;1.00;0.40;;;22.50;59.70;;;;;;5073592;28;20037;-59
2022/07/27 03:59:38;;;;;;;0.35;0.30;;;22.50;59.70;;;;;;5072922;28;20134;-60
2022/07/27 04:02:04;;;;;;;1.02;0.32;;;22.50;59.80;;;;;;5058999;28;20078;-60
2022/07/27 04:04:29;;;;;;;0.85;0.30;;;22.50;60.40;;;;;;5052930;28;20114;-60
2022/07/27 04:06:55;;;;;;;1.40;0.40;;;22.50;59.80;;;;;;5051836;28;20036;-60
2022/07/27 04:09:21;;;;;;;1.25;0.40;;;22.50;59.80;;;;;;5053334;28;20049;-60
2022/07/27 04:11:46;;;;;;;2.35;0.30;;;22.50;59.80;;;;;;5052853;28;20045;-60
2022/07/27 04:14:12;;;;;;;2.03;0.40;;;22.50;59.90;;;;;;5052255;28;20136;-60
2022/07/27 04:16:37;;;;;;;0.73;0.30;;;22.50;59.90;;;;;;5053355;28;20044;-60
2022/07/27 04:19:03;;;;;;;1.10;0.40;;;22.50;60.00;;;;;;5053034;28;20052;-60
2022/07/27 04:21:29;;;;;;;1.25;0.35;;;22.50;60.00;;;;;;5052575;28;20041;-59
2022/07/27 04:23:54;;;;;;;0.55;0.30;;;22.50;60.00;;;;;;5052631;28;20048;-59
2022/07/27 04:26:20;;;;;;;0.45;0.25;;;22.50;60.00;;;;;;5052429;28;20147;-59
2022/07/27 04:28:45;;;;;;;0.45;0.30;;;22.40;59.90;;;;;;5052130;28;20124;-59
2022/07/27 04:31:11;;;;;;;1.25;0.40;;;22.50;60.00;;;;;;5052802;28;20044;-61
2022/07/27 04:33:36;;;;;;;1.42;0.38;;;22.40;60.00;;;;;;5052898;28;20404;-59
2022/07/27 04:36:02;;;;;;;0.88;0.30;;;22.50;60.00;;;;;;5051943;28;20548;-59
2022/07/27 04:38:27;;;;;;;0.70;0.30;;;22.50;60.00;;;;;;5052986;28;20140;-59
2022/07/27 04:40:53;;;;;;;0.77;0.30;;;22.40;60.00;;;;;;5051513;28;20463;-60
2022/07/27 04:43:18;;;;;;;1.65;0.30;;;22.50;60.00;;;;;;5051742;28;20045;-60
2022/07/27 04:45:44;;;;;;;0.65;0.30;;;22.40;60.00;;;;;;5052254;28;20136;-59
2022/07/27 04:48:10;;;;;;;1.50;0.32;;;22.40;60.00;;;;;;5052665;28;20045;-59
2022/07/27 04:50:40;;;;;;;0.45;0.30;;;22.40;60.00;;;;;;5051849;28;20392;-60
2022/07/27 04:53:05;;;;;;;1.35;0.30;;;22.40;60.00;;;;;;5050888;28;20076;-59
2022/07/27 04:55:31;;;;;;;0.88;0.30;;;22.40;60.10;;;;;;5052475;28;20080;-60
2022/07/27 04:57:56;;;;;;;1.02;0.30;;;22.40;60.10;;;;;;5051489;28;20059;-60
2022/07/27 05:00:22;;;;;;;1.45;0.40;;;22.40;60.10;;;;;;5052477;28;20044;-59
2022/07/27 05:02:48;;;;;;;0.22;0.17;;;22.40;60.10;;;;;;5050109;28;20052;-59
2022/07/27 05:05:13;;;;;;;1.05;0.50;;;22.40;60.10;;;;;;5052544;28;20037;-59
2022/07/27 05:07:39;;;;;;;0.63;0.20;;;22.40;60.10;;;;;;5052486;28;20531;-59
2022/07/27 05:10:04;;;;;;;1.05;0.60;;;22.40;60.10;;;;;;5061667;28;20381;-59
2022/07/27 05:12:30;;;;;;;2.15;0.40;;;22.40;60.10;;;;;;5092368;28;20502;-59
2022/07/27 05:14:55;;;;;;;0.57;0.20;;;22.40;60.10;;;;;;5093806;28;20048;-59
2022/07/27 05:17:21;;;;;;;1.17;0.40;;;22.40;60.10;;;;;;5095020;28;20051;-59
2022/07/27 05:19:47;;;;;;;0.55;0.20;;;22.40;60.10;;;;;;5096419;28;20048;-60
2022/07/27 05:22:12;;;;;;;0.98;0.30;;;22.40;60.20;;;;;;5097136;28;20043;-59
2022/07/27 05:24:38;;;;;;;0.80;0.30;;;22.40;60.20;;;;;;5095960;28;20497;-60
2022/07/27 05:27:04;;;;;;;1.58;0.28;;;22.40;60.20;;;;;;5096344;28;20047;-59
2022/07/27 05:29:30;;;;;;;0.77;0.40;;;22.40;60.20;;;;;;5096832;28;20051;-60
2022/07/27 05:31:55;;;;;;;1.08;0.30;;;22.40;60.20;;;;;;5095529;28;20119;-61
2022/07/27 05:34:21;;;;;;;0.40;0.30;;;22.40;60.10;;;;;;5096498;28;20064;-61
2022/07/27 05:36:47;;;;;;;1.88;0.50;;;22.30;60.10;;;;;;5096286;28;20040;-61
2022/07/27 05:39:12;;;;;;;0.60;0.32;;;22.40;60.20;;;;;;5095687;28;20040;-60
2022/07/27 05:41:38;;;;;;;1.13;0.30;;;22.40;60.30;;;;;;5096495;28;20085;-61
2022/07/27 05:44:04;;;;;;;1.10;0.40;;;22.40;60.50;;;;;;5096054;28;20036;-60
2022/07/27 05:46:32;;;;;;;1.45;0.40;;;22.40;60.50;;;;;;5094240;28;20071;-60
2022/07/27 05:48:58;;;;;;;2.20;0.47;;;22.40;60.50;;;;;;5095955;28;20059;-60
2022/07/27 05:51:23;;;;;;;2.58;0.40;;;22.40;60.50;;;;;;5096240;28;20067;-60
2022/07/27 05:53:49;;;;;;;2.15;0.30;;;22.40;60.50;;;;;;5093811;28;20477;-60
2022/07/27 05:56:14;;;;;;;0.85;0.30;;;22.40;60.60;;;;;;5096211;28;20055;-60
2022/07/27 05:58:40;;;;;;;1.35;0.50;;;22.40;60.60;;;;;;5095897;28;20048;-61
2022/07/27 06:01:05;;;;;;;1.33;0.47;;;22.40;60.70;;;;;;5095460;28;20047;-61
2022/07/27 06:03:31;;;;;;;2.13;0.43;;;22.40;60.70;;;;;;5096185;28;20044;-60
2022/07/27 06:08:41;;;;;;;1.42;0.38;;;22.40;60.60;;;;;;5060982;28;20404;-61
2022/07/27 06:11:06;;;;;;;2.30;1.10;;;22.40;60.60;;;;;;5053563;28;20609;-60
2022/07/27 06:13:34;;;;;;;1.42;0.40;;;22.40;60.70;;;;;;5053872;28;20041;-60
2022/07/27 06:16:00;;;;;;;3.25;0.40;;;22.40;60.90;;;;;;5055045;28;20052;-60
2022/07/27 06:18:25;;;;;;;1.85;0.40;;;22.50;61.10;;;;;;5055130;28;20041;-61
2022/07/27 06:20:51;;;;;;;2.03;0.40;;;22.50;61.10;;;;;;5054168;28;20493;-61
2022/07/27 06:23:16;;;;;;;1.08;0.40;;;22.50;61.80;;;;;;5055227;28;20051;-60
2022/07/27 06:25:42;;;;;;;5.53;0.50;;;22.50;61.20;;;;;;5054728;28;20140;-61
2022/07/27 06:28:08;;;;;;;2.38;0.40;;;22.50;61.20;;;;;;5063610;28;20079;-61
2022/07/27 06:30:34;;;;;;;2.17;0.45;;;22.50;61.20;;;;;;5074586;28;20434;-60
2022/07/27 06:33:03;;;;;;;3.13;0.55;;;22.50;61.30;;;;;;5074411;28;20044;-60
2022/07/27 06:35:28;;;;;;;2.42;0.50;;;22.50;61.30;;;;;;5074361;28;20484;-61
2022/07/27 06:37:54;;;;;;;1.73;0.40;;;22.50;61.30;;;;;;5074709;28;20040;-61
2022/07/27 06:40:19;;;;;;;4.60;0.60;;;22.50;61.20;;;;;;5074785;28;20119;-61
2022/07/27 06:42:45;;;;;;;2.55;0.40;;;22.50;61.20;;;;;;5072086;28;20036;-61
2022/07/27 06:45:11;;;;;;;1.52;0.43;;;22.50;61.10;;;;;;5074500;28;20094;-60
2022/07/27 06:47:38;;;;;;;2.88;0.60;;;22.50;61.20;;;;;;5073037;28;20048;-61
2022/07/27 06:50:04;;;;;;;1.35;0.45;;;22.60;61.20;;;;;;5073901;28;20044;-60
2022/07/27 06:52:29;;;;;;;3.88;0.50;;;22.60;61.20;;;;;;5074842;28;20048;-60
2022/07/27 06:54:55;;;;;;;2.15;0.45;;;22.60;61.20;;;;;;5073994;28;20040;-61
2022/07/27 06:57:21;;;;;;;2.40;0.90;;;22.60;61.10;;;;;;5074157;28;20082;-60
2022/07/27 06:59:46;;;;;;;3.03;0.43;;;22.60;61.10;;;;;;5074431;28;20050;-60
2022/07/27 07:02:12;;;;;;;2.35;0.43;;;22.60;61.10;;;;;;5072784;28;20045;-61
2022/07/27 07:04:37;;;;;;;2.10;0.50;;;22.60;61.10;;;;;;5074115;28;20055;-61
2022/07/27 07:07:03;;;;;;;2.42;0.40;;;22.60;61.10;;;;;;5074594;28;20041;-61
2022/07/27 07:09:29;;;;;;;1.38;0.40;;;22.60;61.10;;;;;;5073913;28;20045;-61
2022/07/27 07:11:54;;;;;;;2.15;0.40;;;22.60;61.10;;;;;;5072940;28;20376;-61
2022/07/27 07:14:20;;;;;;;1.20;0.40;;;22.60;61.10;;;;;;5074216;28;20087;-60
2022/07/27 07:16:45;;;;;;;3.78;1.27;;;22.60;61.00;;;;;;5072051;28;20458;-60
2022/07/27 07:19:11;;;;;;;8.25;1.52;;;22.60;61.00;;;;;;5073814;28;20047;-61
2022/07/27 07:21:37;;;;;;;7.82;1.90;;;22.60;61.10;;;;;;5074019;28;20119;-61
2022/07/27 07:24:02;;;;;;;5.22;1.50;;;22.60;61.20;;;;;;5073201;28;20044;-60
2022/07/27 07:26:28;;;;;;;8.20;1.50;;;22.60;61.30;;;;;;5072799;28;20117;-60
2022/07/27 07:28:53;;;;;;;7.90;2.45;;;22.70;61.40;;;;;;5072416;28;20450;-61
2022/07/27 07:31:19;;;;;;;7.38;2.20;;;22.70;61.50;;;;;;5073524;28;20131;-60
2022/07/27 07:33:45;;;;;;;7.47;2.22;;;22.70;61.60;;;;;;5071806;28;20072;-60
2022/07/27 07:36:10;;;;;;;9.63;2.22;;;22.70;61.50;;;;;;5074078;28;20075;-61
2022/07/27 07:38:36;;;;;;;6.97;1.98;;;22.70;61.50;;;;;;5072508;28;20115;-60
2022/07/27 07:41:01;;;;;;;6.85;1.92;;;22.70;61.60;;;;;;5073444;28;20037;-60
2022/07/27 07:43:27;;;;;;;9.80;2.10;;;22.70;61.50;;;;;;5073603;28;20048;-61
2022/07/27 07:45:54;;;;;;;5.50;2.15;;;22.70;61.40;;;;;;5071387;28;20094;-61
2022/07/27 07:48:20;;;;;;;10.50;2.38;;;22.70;61.30;;;;;;5064931;28;20092;-61
2022/07/27 07:50:46;;;;;;;5.20;1.80;;;22.70;61.20;;;;;;5072751;28;20047;-61
2022/07/27 07:53:13;;;;;;;8.52;1.98;;;22.70;61.10;;;;;;5072333;28;20450;-61
2022/07/27 07:55:39;;;;;;;8.20;1.97;;;22.70;61.00;;;;;;5072254;28;20086;-61
2022/07/27 07:58:04;;;;;;;6.85;2.13;;;22.70;61.00;;;;;;5073003;28;20048;-61
2022/07/27 08:00:30;;;;;;;5.97;1.90;;;22.70;60.90;;;;;;5071435;28;20032;-61
2022/07/27 08:02:56;;;;;;;7.45;2.00;;;22.70;60.80;;;;;;5072799;28;20124;-61
2022/07/27 08:05:22;;;;;;;7.70;2.00;;;22.70;60.80;;;;;;5073038;28;20047;-61
2022/07/27 08:07:48;;;;;;;8.23;1.65;;;22.70;60.70;;;;;;5072498;28;20040;-61
2022/07/27 08:10:14;;;;;;;6.18;1.85;;;22.70;60.70;;;;;;5073300;28;20049;-60
2022/07/27 08:12:41;;;;;;;8.88;2.28;;;22.70;60.70;;;;;;5071343;28;20036;-60
2022/07/27 08:15:07;;;;;;;7.30;1.75;;;22.70;60.60;;;;;;5072783;28;20111;-61
2022/07/27 08:17:33;;;;;;;4.55;1.48;;;22.70;60.60;;;;;;5073100;28;20040;-61
2022/07/27 08:19:59;;;;;;;5.93;1.55;;;22.70;60.60;;;;;;5070840;28;20054;-61
2022/07/27 08:22:24;;;;;;;4.82;1.60;;;22.70;60.60;;;;;;5072795;28;20050;-61
2022/07/27 08:24:50;;;;;;;6.43;1.77;;;22.70;60.60;;;;;;5072840;28;20041;-61
2022/07/27 08:27:16;;;;;;;5.80;1.75;;;22.70;60.60;;;;;;5071892;28;20048;-61
2022/07/27 08:29:41;;;;;;;4.93;1.35;;;22.70;60.70;;;;;;5072958;28;20040;-61
2022/07/27 08:32:07;;;;;;;4.63;1.35;;;22.70;60.60;;;;;;5072631;28;20040;-60
2022/07/27 08:34:32;;;;;;;7.22;1.63;;;22.70;60.60;;;;;;5072155;28;20040;-61
2022/07/27 08:36:58;;;;;;;4.40;1.48;;;22.70;60.60;;;;;;5072677;28;20144;-61
2022/07/27 08:39:24;;;;;;;4.63;1.60;;;22.70;60.60;;;;;;5072691;28;20044;-60
2022/07/27 08:41:51;;;;;;;4.90;1.55;;;22.70;60.60;;;;;;5071639;28;20120;-61
2022/07/27 08:44:16;;;;;;;4.97;1.40;;;22.70;60.70;;;;;;5071587;28;20040;-61
2022/07/27 08:46:42;;;;;;;7.32;2.00;;;22.70;60.70;;;;;;5054222;28;20041;-61
2022/07/27 08:49:07;;;;;;;4.68;1.48;;;22.70;60.70;;;;;;5072005;28;20044;-61
2022/07/27 08:51:33;;;;;;;6.00;1.45;;;22.70;60.70;;;;;;5071456;28;20048;-61
2022/07/27 08:53:59;;;;;;;7.57;2.35;;;22.70;60.70;;;;;;5070462;28;20045;-61
2022/07/27 08:56:25;;;;;;;6.82;1.33;;;22.80;60.80;;;;;;5070567;28;20523;-61
2022/07/27 08:58:51;;;;;;;5.72;1.70;;;22.80;60.70;;;;;;5072324;28;20051;-61
2022/07/27 09:01:16;;;;;;;6.53;1.60;;;22.70;60.70;;;;;;5071104;28;20444;-61
2022/07/27 09:03:42;;;;;;;3.55;1.08;;;22.80;60.80;;;;;;5072204;28;20115;-61
2022/07/27 09:06:07;;;;;;;4.63;1.30;;;22.80;60.80;;;;;;5072501;28;20477;-61
2022/07/27 09:08:34;;;;;;;3.50;1.10;;;22.80;60.80;;;;;;5071985;28;20046;-61
2022/07/27 09:11:02;;;;;;;4.38;1.15;;;22.80;60.70;;;;;;5071611;28;20048;-61
2022/07/27 09:13:32;;;;;;;3.08;1.08;;;22.80;60.70;;;;;;5072546;28;20084;-61
2022/07/27 09:16:02;;;;;;;4.82;1.25;;;22.90;61.30;;;;;;5069934;28;20098;-61
2022/07/27 09:18:29;;;;;;;3.45;1.20;;;22.90;60.60;;;;;;5072326;28;20127;-61
2022/07/27 09:21:14;;;;;;;5.32;1.05;;;22.90;60.60;;;;;;5070856;28;20045;-61
2022/07/27 09:23:42;;;;;;;5.60;1.02;;;22.90;60.50;;;;;;5071576;28;20040;-61
2022/07/27 09:26:13;;;;;;;3.08;1.08;;;22.90;60.40;;;;;;5072173;28;20059;-60
2022/07/27 09:28:39;;;;;;;2.67;0.90;;;23.00;60.40;;;;;;5070633;28;20123;-61
2022/07/27 09:31:10;;;;;;;4.57;1.05;;;23.00;60.30;;;;;;5071110;28;20124;-61
2022/07/27 09:33:45;;;;;;;2.63;0.88;;;23.00;60.20;;;;;;5071020;28;20135;-61
2022/07/27 09:36:11;;;;;;;5.22;1.45;;;23.00;60.10;;;;;;5071775;28;20373;-61
2022/07/27 09:38:37;;;;;;;3.20;1.30;;;23.00;60.10;;;;;;5071378;28;20484;-61
2022/07/27 09:41:05;;;;;;;5.82;1.25;;;23.10;60.10;;;;;;5071886;28;20060;-61
2022/07/27 09:43:32;;;;;;;3.75;1.10;;;23.10;60.10;;;;;;5071259;28;20037;-61
2022/07/27 09:46:04;;;;;;;3.38;1.20;;;23.00;60.00;;;;;;5071346;28;20116;-60
2022/07/27 09:48:30;;;;;;;5.45;1.23;;;23.00;59.90;;;;;;5072028;28;20120;-61
2022/07/27 09:50:58;;;;;;;5.68;1.55;;;23.00;59.70;;;;;;5053616;28;20139;-61
2022/07/27 09:53:26;;;;;;;2.88;0.80;;;23.00;59.40;;;;;;5071568;28;20044;-61
2022/07/27 09:55:57;;;;;;;4.15;1.45;;;22.90;59.20;;;;;;5071758;28;20557;-61
2022/07/27 09:58:45;;;;;;;5.03;1.10;;;22.90;59.00;;;;;;5071490;28;20045;-61
2022/07/27 10:01:13;;;;;;;3.42;1.20;;;22.90;58.80;;;;;;5073534;28;20048;-61
2022/07/27 10:03:40;;;;;;;3.45;1.13;;;22.90;58.90;;;;;;5074689;28;20071;-61
2022/07/27 10:06:06;;;;;;;3.63;0.90;;;22.80;58.70;;;;;;5074559;28;20051;-61
2022/07/27 10:08:32;;;;;;;3.72;1.20;;;22.80;58.70;;;;;;5074663;28;20048;-61
2022/07/27 10:10:57;;;;;;;3.58;1.25;;;22.80;58.70;;;;;;5075315;28;20119;-61
2022/07/27 10:13:24;;;;;;;4.90;1.17;;;22.80;58.80;;;;;;5074983;28;20404;-60
2022/07/27 10:15:50;;;;;;;5.90;0.95;;;22.80;59.00;;;;;;5074025;28;20041;-60
2022/07/27 10:18:41;;;;;;;5.68;0.95;;;22.80;59.10;;;;;;5057240;28;20056;-61
2022/07/27 10:21:07;;;;;;;4.65;1.10;;;22.80;59.50;;;;;;5066175;28;20469;-60
2022/07/27 10:23:36;;;;;;;3.67;0.90;;;22.80;59.50;;;;;;5073931;28;20404;-60
2022/07/27 10:26:26;;;;;;;5.35;1.08;;;22.80;59.60;;;;;;5074705;28;20048;-60
2022/07/27 10:28:52;;;;;;;3.03;0.80;;;22.80;59.70;;;;;;5073295;28;20041;-60
2022/07/27 10:31:19;;;;;;;6.32;1.35;;;22.80;59.80;;;;;;5074540;28;20033;-60
2022/07/27 10:33:46;;;;;;;5.07;0.93;;;22.80;59.90;;;;;;5073504;28;20127;-61
2022/07/27 10:36:39;;;;;;;4.13;0.93;;;22.80;59.90;;;;;;5074746;28;20032;-61
2022/07/27 10:39:05;;;;;;;2.53;0.85;;;22.80;60.00;;;;;;5070678;28;20303;-60
2022/07/27 10:41:40;;;;;;;10.25;1.17;;;22.80;60.00;;;;;;5074260;28;20044;-60
2022/07/27 10:44:17;;;;;;;2.78;0.85;;;22.80;60.00;;;;;;5079173;28;20049;-60
2022/07/27 10:46:57;;;;;;;4.72;1.13;;;22.90;60.10;;;;;;5070189;28;20037;-60
2022/07/27 10:49:30;;;;;;;2.92;0.82;;;22.90;60.10;;;;;;5071505;28;20072;-60
2022/07/27 10:51:57;;;;;;;4.53;0.93;;;22.90;60.10;;;;;;5073108;28;20049;-60
2022/07/27 10:54:31;;;;;;;3.47;1.00;;;22.90;60.10;;;;;;5072229;28;20521;-60
2022/07/27 10:56:57;;;;;;;4.20;0.90;;;22.90;60.10;;;;;;5073786;28;20410;-60
2022/07/27 10:59:53;;;;;;;3.17;0.75;;;23.00;60.10;;;;;;5074903;28;20040;-61
2022/07/27 11:02:18;;;;;;;4.00;1.13;;;23.00;60.00;;;;;;5069495;28;20543;-60
2022/07/27 11:04:50;;;;;;;3.85;1.00;;;23.00;60.10;;;;;;5072932;28;20127;-60
2022/07/27 11:07:20;;;;;;;2.65;0.73;;;23.00;60.10;;;;;;5073015;28;20052;-60
2022/07/27 11:09:47;;;;;;;4.55;1.13;;;23.00;60.00;;;;;;5072682;28;20102;-60
2022/07/27 11:12:13;;;;;;;4.32;0.93;;;23.00;60.00;;;;;;5073532;28;20045;-60
2022/07/27 11:14:49;;;;;;;2.90;0.80;;;23.00;60.00;;;;;;5073821;28;20062;-60
2022/07/27 11:17:16;;;;;;;4.20;0.93;;;23.00;60.10;;;;;;5072590;28;20047;-60
2022/07/27 11:19:41;;;;;;;3.08;1.00;;;23.10;60.10;;;;;;5074254;28;20054;-60
2022/07/27 11:22:07;;;;;;;3.55;1.10;;;23.10;60.10;;;;;;5072716;28;20123;-60
2022/07/27 11:24:34;;;;;;;3.92;0.70;;;23.10;60.20;;;;;;5072535;28;20391;-60
2022/07/27 11:27:00;;;;;;;3.47;0.80;;;23.10;60.20;;;;;;5073706;28;20087;-60
2022/07/27 11:29:25;;;;;;;5.07;1.13;;;23.10;60.20;;;;;;5073504;28;20075;-60
2022/07/27 11:31:53;;;;;;;3.92;0.98;;;23.10;60.20;;;;;;5072547;28;20072;-57
2022/07/27 11:34:28;;;;;;;2.63;0.80;;;23.10;60.00;;;;;;5073703;28;20127;-60
2022/07/27 11:36:57;;;;;;;5.55;0.80;;;23.10;59.90;;;;;;5071588;28;20411;-63
2022/07/27 11:39:24;;;;;;;5.47;1.10;;;23.10;59.50;;;;;;5073542;28;20071;-62
2022/07/27 11:41:56;;;;;;;3.20;1.05;;;23.10;58.60;;;;;;5071929;28;20047;-62
2022/07/27 11:44:22;;;;;;;2.70;0.70;;;23.10;57.50;;;;;;5070126;28;20120;-56
2022/07/27 11:46:48;;;;;;;3.95;0.80;;;23.00;56.20;;;;;;5073198;28;20119;-56
2022/07/27 11:49:32;;;;;;;3.05;1.00;;;23.00;55.20;;;;;;5072770;28;20082;-56
2022/07/27 11:52:01;;;;;;;3.42;0.60;;;23.00;53.50;;;;;;5070417;28;20205;-57
2022/07/27 11:54:34;;;;;;;3.60;0.60;;;23.00;53.80;;;;;;5073012;28;20098;-56
2022/07/27 11:57:02;;;;;;;2.53;1.00;;;23.00;53.30;;;;;;5072554;28;20044;-56
2022/07/27 11:59:29;;;;;;;3.58;0.70;;;23.00;53.20;;;;;;5072680;28;20049;-56
2022/07/27 12:02:04;;;;;;;3.97;0.60;;;22.90;52.90;;;;;;5071400;28;20514;-57
2022/07/27 12:04:34;;;;;;;3.83;0.63;;;22.90;52.60;;;;;;5071021;28;20114;-56
2022/07/27 12:07:09;;;;;;;3.15;0.52;;;22.90;52.40;;;;;;5072108;28;20119;-56
2022/07/27 12:09:46;;;;;;;4.15;0.80;;;22.90;52.20;;;;;;5073072;28;20132;-61
2022/07/27 12:12:15;;;;;;;3.50;1.03;;;22.90;52.20;;;;;;5072809;28;20127;-63
2022/07/27 12:14:49;;;;;;;2.95;0.60;;;22.90;52.40;;;;;;5073312;28;20095;-63
2022/07/27 12:17:30;;;;;;;3.03;0.73;;;22.90;52.40;;;;;;5073060;28;20036;-63
2022/07/27 12:19:56;;;;;;;2.03;0.70;;;22.90;52.30;;;;;;5072172;28;20406;-63
2022/07/27 12:22:24;;;;;;;3.03;0.60;;;22.90;52.50;;;;;;5073187;28;20037;-63
2022/07/27 12:24:49;;;;;;;4.07;0.65;;;23.00;52.60;;;;;;5071216;28;20052;-64
2022/07/27 12:27:15;;;;;;;2.75;0.60;;;23.00;52.90;;;;;;5072210;28;20598;-63
2022/07/27 12:30:01;;;;;;;2.83;0.60;;;23.00;53.00;;;;;;5071573;28;20474;-58
2022/07/27 12:32:27;;;;;;;1.48;0.52;;;23.00;53.20;;;;;;5072814;28;20048;-57
2022/07/27 12:34:53;;;;;;;2.30;0.80;;;23.00;53.30;;;;;;5053820;28;20064;-57
2022/07/27 12:37:19;;;;;;;3.15;0.57;;;23.00;53.30;;;;;;5073044;28;20048;-57
2022/07/27 12:39:45;;;;;;;3.60;0.70;;;23.00;53.30;;;;;;5071278;28;20044;-58
2022/07/27 12:42:11;;;;;;;3.60;0.70;;;23.00;53.50;;;;;;5072262;28;20051;-71
2022/07/27 12:44:39;;;;;;;3.60;0.80;;;23.00;53.60;;;;;;5073011;28;20051;-59
2022/07/27 12:50:12;;;;;;;3.03;0.60;;;23.00;53.60;;;;;;5072339;28;20462;-59
2022/07/27 12:52:41;;;;;;;4.05;0.90;;;23.00;53.20;;;;;;5071085;28;20522;-60